Current | Forecast
Updated: 1:30 AM +05 on May 01, 2017
Observed at Hanty-Mansijsk, Russia
Temperature 41°F
Windchill 35°F
Humidity 61%
Dew Point 28°F
Wind WNW at 9 mph
Pressure 30.18 in (Steady)
Conditions Clear
Visibility -
UV N/A
Clouds
Yesterday's Maximum 43°F
Yesterday's Minimum 25°F approx.
Yesterday's Heating Degree Days 31 approx.
Sunrise4:15 AM +05
Sunset8:24 PM +05
Moon Rise8:19 AM +05
Moon Set1:04 AM +05
Moon PhaseMoon Phase
Waxing Crescent
Raw METARMETAR USHH 302030Z 29004MPS CAVOK 05/M02 Q1022 R24/010060 NOSIG RMK QFE763


Monday
. High: 62° F.
Tuesday
. High: 71° F.
Wednesday
. High: 68° F.
Thursday
. High: 66° F.
Friday
. High: 50° F.
Saturday
. High: 48° F.
Sunday
. High: 60° F.
Monday
. High: 60° F.

Units: English | Metric

Find the Weather for any City, State or Zipcode, or Country:

U.S. State List | Severe Weather | Tropical Storms | Ski Conditions
United States | Canada | Central America | South America | Asia | Europe | Australia | Africa | Islands

Weather Underground

© Copyright 2017
The Weather Company, LLC